sensor_id;sensor_type;location;lat;lon;timestamp;pressure;altitude;pressure_sealevel;temperature;humidity
3178;BME280;38141;42.666;23.344;2023-11-22T00:02:23;93937.25;;;8.18;100.00
3178;BME280;38141;42.666;23.344;2023-11-22T00:04:54;93966.50;;;7.98;100.00
3178;BME280;38141;42.666;23.344;2023-11-22T00:07:21;93970.34;;;7.90;100.00
3178;BME280;38141;42.666;23.344;2023-11-22T00:09:48;93944.16;;;7.80;100.00
3178;BME280;38141;42.666;23.344;2023-11-22T00:12:15;93941.09;;;7.88;100.00
3178;BME280;38141;42.666;23.344;2023-11-22T00:14:43;93920.69;;;8.09;100.00
3178;BME280;38141;42.666;23.344;2023-11-22T00:17:09;93952.66;;;8.10;100.00
3178;BME280;38141;42.666;23.344;2023-11-22T00:19:39;93929.91;;;7.86;100.00
3178;BME280;38141;42.666;23.344;2023-11-22T00:22:05;93949.13;;;7.81;100.00
3178;BME280;38141;42.666;23.344;2023-11-22T00:24:38;93961.47;;;7.96;100.00
3178;BME280;38141;42.666;23.344;2023-11-22T00:27:05;93946.09;;;8.00;100.00
3178;BME280;38141;42.666;23.344;2023-11-22T00:29:32;93929.91;;;7.83;100.00
3178;BME280;38141;42.666;23.344;2023-11-22T00:31:59;93925.72;;;7.85;100.00
3178;BME280;38141;42.666;23.344;2023-11-22T00:34:26;93941.06;;;7.78;100.00
3178;BME280;38141;42.666;23.344;2023-11-22T00:36:55;93949.19;;;7.99;100.00
3178;BME280;38141;42.666;23.344;2023-11-22T00:39:21;93956.50;;;8.16;100.00
3178;BME280;38141;42.666;23.344;2023-11-22T00:41:48;93960.31;;;7.83;100.00
3178;BME280;38141;42.666;23.344;2023-11-22T00:44:15;93918.41;;;7.93;100.00
3178;BME280;38141;42.666;23.344;2023-11-22T00:46:43;93976.44;;;7.73;100.00
3178;BME280;38141;42.666;23.344;2023-11-22T00:49:11;93938.00;;;7.79;100.00
3178;BME280;38141;42.666;23.344;2023-11-22T00:51:38;93974.88;;;7.65;100.00
3178;BME280;38141;42.666;23.344;2023-11-22T00:54:06;93929.53;;;7.77;100.00
3178;BME280;38141;42.666;23.344;2023-11-22T00:56:33;93968.34;;;7.58;100.00
3178;BME280;38141;42.666;23.344;2023-11-22T00:59:01;93923.78;;;7.79;100.00
3178;BME280;38141;42.666;23.344;2023-11-22T01:01:29;93947.22;;;7.82;100.00
3178;BME280;38141;42.666;23.344;2023-11-22T01:03:57;93940.69;;;7.83;100.00
3178;BME280;38141;42.666;23.344;2023-11-22T01:06:24;93949.19;;;8.06;100.00
3178;BME280;38141;42.666;23.344;2023-11-22T01:08:50;93952.66;;;8.17;100.00
3178;BME280;38141;42.666;23.344;2023-11-22T01:11:19;93936.88;;;8.16;100.00
3178;BME280;38141;42.666;23.344;2023-11-22T01:13:46;93917.63;;;8.14;100.00
3178;BME280;38141;42.666;23.344;2023-11-22T01:16:13;93939.56;;;8.40;100.00
3178;BME280;38141;42.666;23.344;2023-11-22T01:18:41;93917.22;;;8.22;100.00
3178;BME280;38141;42.666;23.344;2023-11-22T01:21:08;93911.84;;;8.22;100.00
3178;BME280;38141;42.666;23.344;2023-11-22T01:23:36;93909.56;;;8.38;100.00
3178;BME280;38141;42.666;23.344;2023-11-22T01:26:02;93923.78;;;8.46;100.00
3178;BME280;38141;42.666;23.344;2023-11-22T01:28:32;93922.66;;;8.43;100.00
3178;BME280;38141;42.666;23.344;2023-11-22T01:31:00;93893.38;;;8.21;100.00
3178;BME280;38141;42.666;23.344;2023-11-22T01:33:27;93922.66;;;8.40;100.00
3178;BME280;38141;42.666;23.344;2023-11-22T01:35:54;93916.84;;;8.45;100.00
3178;BME280;38141;42.666;23.344;2023-11-22T01:38:21;93906.84;;;8.42;100.00
3178;BME280;38141;42.666;23.344;2023-11-22T01:40:50;93902.19;;;8.60;100.00
3178;BME280;38141;42.666;23.344;2023-11-22T01:43:18;93892.59;;;8.52;100.00
3178;BME280;38141;42.666;23.344;2023-11-22T01:45:46;93892.19;;;8.61;100.00
3178;BME280;38141;42.666;23.344;2023-11-22T01:48:14;93882.94;;;8.55;100.00
3178;BME280;38141;42.666;23.344;2023-11-22T01:50:42;93895.66;;;8.61;100.00
3178;BME280;38141;42.666;23.344;2023-11-22T01:53:11;93893.72;;;8.65;100.00
3178;BME280;38141;42.666;23.344;2023-11-22T01:55:39;93900.25;;;8.71;100.00
3178;BME280;38141;42.666;23.344;2023-11-22T01:58:06;93884.88;;;8.58;100.00
3178;BME280;38141;42.666;23.344;2023-11-22T02:00:36;93902.56;;;8.59;100.00
3178;BME280;38141;42.666;23.344;2023-11-22T02:03:09;93888.34;;;8.55;100.00
3178;BME280;38141;42.666;23.344;2023-11-22T02:05:39;93883.00;;;8.44;100.00
3178;BME280;38141;42.666;23.344;2023-11-22T02:08:07;93880.69;;;8.32;100.00
3178;BME280;38141;42.666;23.344;2023-11-22T02:10:35;93888.78;;;8.07;100.00
3178;BME280;38141;42.666;23.344;2023-11-22T02:13:02;93888.00;;;8.17;100.00
3178;BME280;38141;42.666;23.344;2023-11-22T02:15:30;93886.06;;;8.18;100.00
3178;BME280;38141;42.666;23.344;2023-11-22T02:17:57;93907.22;;;8.23;100.00
3178;BME280;38141;42.666;23.344;2023-11-22T02:20:25;93879.16;;;8.31;100.00
3178;BME280;38141;42.666;23.344;2023-11-22T02:22:52;93883.00;;;8.30;100.00
3178;BME280;38141;42.666;23.344;2023-11-22T02:25:21;93862.22;;;8.13;100.00
3178;BME280;38141;42.666;23.344;2023-11-22T02:27:48;93887.22;;;8.48;100.00
3178;BME280;38141;42.666;23.344;2023-11-22T02:30:15;93886.78;;;8.64;100.00
3178;BME280;38141;42.666;23.344;2023-11-22T02:32:42;93884.94;;;8.33;100.00
3178;BME280;38141;42.666;23.344;2023-11-22T02:35:09;93889.53;;;8.32;100.00
3178;BME280;38141;42.666;23.344;2023-11-22T02:37:36;93892.63;;;8.38;100.00
3178;BME280;38141;42.666;23.344;2023-11-22T02:40:06;93886.84;;;8.36;100.00
3178;BME280;38141;42.666;23.344;2023-11-22T02:42:38;93892.97;;;8.51;100.00
3178;BME280;38141;42.666;23.344;2023-11-22T02:45:05;93879.91;;;8.42;100.00
3178;BME280;38141;42.666;23.344;2023-11-22T02:47:32;93888.00;;;8.38;100.00
3178;BME280;38141;42.666;23.344;2023-11-22T02:50:01;93882.63;;;8.35;100.00
3178;BME280;38141;42.666;23.344;2023-11-22T02:52:28;93887.59;;;8.36;100.00
3178;BME280;38141;42.666;23.344;2023-11-22T02:54:55;93879.94;;;8.35;100.00
3178;BME280;38141;42.666;23.344;2023-11-22T02:57:22;93889.50;;;8.57;100.00
3178;BME280;38141;42.666;23.344;2023-11-22T02:59:50;93887.22;;;8.45;100.00
3178;BME280;38141;42.666;23.344;2023-11-22T03:02:17;93893.38;;;8.49;100.00
3178;BME280;38141;42.666;23.344;2023-11-22T03:04:44;93883.34;;;8.49;100.00
3178;BME280;38141;42.666;23.344;2023-11-22T03:07:11;93897.59;;;8.57;100.00
3178;BME280;38141;42.666;23.344;2023-11-22T03:09:38;93895.66;;;8.54;100.00
3178;BME280;38141;42.666;23.344;2023-11-22T03:12:06;93861.06;;;8.35;100.00
3178;BME280;38141;42.666;23.344;2023-11-22T03:14:34;93883.72;;;8.62;100.00
3178;BME280;38141;42.666;23.344;2023-11-22T03:17:03;93894.47;;;8.73;100.00
3178;BME280;38141;42.666;23.344;2023-11-22T03:19:30;93884.88;;;8.61;100.00
3178;BME280;38141;42.666;23.344;2023-11-22T03:21:59;93903.75;;;8.61;100.00
3178;BME280;38141;42.666;23.344;2023-11-22T03:24:28;93887.59;;;8.47;100.00
3178;BME280;38141;42.666;23.344;2023-11-22T03:26:55;93893.78;;;8.26;100.00
3178;BME280;38141;42.666;23.344;2023-11-22T03:29:24;93905.69;;;8.54;100.00
3178;BME280;38141;42.666;23.344;2023-11-22T03:31:51;93909.53;;;8.60;100.00
3178;BME280;38141;42.666;23.344;2023-11-22T03:34:20;93898.75;;;8.56;100.00
3178;BME280;38141;42.666;23.344;2023-11-22T03:36:47;93881.88;;;8.31;100.00
3178;BME280;38141;42.666;23.344;2023-11-22T03:39:15;93898.00;;;8.41;100.00
3178;BME280;38141;42.666;23.344;2023-11-22T03:41:42;93905.28;;;8.55;100.00
3178;BME280;38141;42.666;23.344;2023-11-22T03:44:10;93895.31;;;8.34;100.00
3178;BME280;38141;42.666;23.344;2023-11-22T03:46:37;93891.06;;;8.47;100.00
3178;BME280;38141;42.666;23.344;2023-11-22T03:49:04;93820.28;;;8.12;100.00
3178;BME280;38141;42.666;23.344;2023-11-22T03:51:33;93868.31;;;8.56;100.00
3178;BME280;38141;42.666;23.344;2023-11-22T03:54:01;93887.19;;;8.66;100.00
3178;BME280;38141;42.666;23.344;2023-11-22T03:56:29;93887.53;;;8.68;100.00
3178;BME280;38141;42.666;23.344;2023-11-22T03:58:56;93887.22;;;8.52;100.00
3178;BME280;38141;42.666;23.344;2023-11-22T04:01:23;93886.03;;;8.60;100.00
3178;BME280;38141;42.666;23.344;2023-11-22T04:03:49;93888.34;;;8.58;100.00
3178;BME280;38141;42.666;23.344;2023-11-22T04:06:17;93888.75;;;8.46;100.00
3178;BME280;38141;42.666;23.344;2023-11-22T04:08:47;93907.22;;;8.40;100.00
3178;BME280;38141;42.666;23.344;2023-11-22T04:11:14;93900.31;;;8.43;100.00
3178;BME280;38141;42.666;23.344;2023-11-22T04:13:42;93920.72;;;8.33;100.00
3178;BME280;38141;42.666;23.344;2023-11-22T04:19:30;93919.94;;;8.19;100.00
3178;BME280;38141;42.666;23.344;2023-11-22T04:21:57;93924.94;;;8.13;100.00
3178;BME280;38141;42.666;23.344;2023-11-22T04:24:26;93924.56;;;8.08;100.00
3178;BME280;38141;42.666;23.344;2023-11-22T04:26:52;93939.94;;;8.25;100.00
3178;BME280;38141;42.666;23.344;2023-11-22T04:29:19;93939.19;;;8.21;100.00
3178;BME280;38141;42.666;23.344;2023-11-22T04:31:46;93937.25;;;8.21;100.00
3178;BME280;38141;42.666;23.344;2023-11-22T04:34:13;93947.31;;;8.35;100.00
3178;BME280;38141;42.666;23.344;2023-11-22T04:36:40;93949.22;;;8.34;100.00
3178;BME280;38141;42.666;23.344;2023-11-22T04:39:07;93953.06;;;8.30;100.00
3178;BME280;38141;42.666;23.344;2023-11-22T04:41:36;93881.06;;;7.74;100.00
3178;BME280;38141;42.666;23.344;2023-11-22T04:44:04;93936.09;;;8.12;100.00
3178;BME280;38141;42.666;23.344;2023-11-22T04:46:31;93907.63;;;7.93;100.00
3178;BME280;38141;42.666;23.344;2023-11-22T04:48:58;93955.75;;;8.30;100.00
3178;BME280;38141;42.666;23.344;2023-11-22T04:51:25;93957.28;;;8.52;100.00
3178;BME280;38141;42.666;23.344;2023-11-22T04:53:54;93934.97;;;8.37;100.00
3178;BME280;38141;42.666;23.344;2023-11-22T04:56:21;93960.00;;;8.48;100.00
3178;BME280;38141;42.666;23.344;2023-11-22T04:58:49;93970.38;;;8.50;100.00
3178;BME280;38141;42.666;23.344;2023-11-22T05:01:16;93964.97;;;8.36;100.00
3178;BME280;38141;42.666;23.344;2023-11-22T05:03:43;93988.47;;;8.49;100.00
3178;BME280;38141;42.666;23.344;2023-11-22T05:06:10;94000.41;;;8.59;100.00
3178;BME280;38141;42.666;23.344;2023-11-22T05:08:37;93974.22;;;8.21;100.00
3178;BME280;38141;42.666;23.344;2023-11-22T05:11:05;93998.88;;;8.51;100.00
3178;BME280;38141;42.666;23.344;2023-11-22T05:13:33;94004.25;;;8.62;100.00
3178;BME280;38141;42.666;23.344;2023-11-22T05:16:01;94002.72;;;8.50;100.00
3178;BME280;38141;42.666;23.344;2023-11-22T05:18:28;94011.97;;;8.60;100.00
3178;BME280;38141;42.666;23.344;2023-11-22T05:20:55;93977.31;;;8.37;100.00
3178;BME280;38141;42.666;23.344;2023-11-22T05:23:22;94015.06;;;8.47;100.00
3178;BME280;38141;42.666;23.344;2023-11-22T05:25:49;94013.50;;;8.71;100.00
3178;BME280;38141;42.666;23.344;2023-11-22T05:28:16;93993.09;;;8.45;100.00
3178;BME280;38141;42.666;23.344;2023-11-22T05:30:43;94024.69;;;8.31;100.00
3178;BME280;38141;42.666;23.344;2023-11-22T05:33:11;94016.97;;;8.43;100.00
3178;BME280;38141;42.666;23.344;2023-11-22T05:35:38;94035.84;;;8.61;100.00
3178;BME280;38141;42.666;23.344;2023-11-22T05:38:06;94047.38;;;8.72;100.00
3178;BME280;38141;42.666;23.344;2023-11-22T05:40:34;94044.31;;;8.45;100.00
3178;BME280;38141;42.666;23.344;2023-11-22T05:43:00;94045.47;;;8.52;100.00
3178;BME280;38141;42.666;23.344;2023-11-22T05:45:27;94043.53;;;8.59;100.00
3178;BME280;38141;42.666;23.344;2023-11-22T05:47:54;94032.75;;;8.45;100.00
3178;BME280;38141;42.666;23.344;2023-11-22T05:50:23;94048.16;;;8.69;100.00
3178;BME280;38141;42.666;23.344;2023-11-22T05:52:49;94039.66;;;8.81;100.00
3178;BME280;38141;42.666;23.344;2023-11-22T05:55:17;94040.81;;;8.45;100.00
3178;BME280;38141;42.666;23.344;2023-11-22T05:57:44;94065.88;;;8.49;100.00
3178;BME280;38141;42.666;23.344;2023-11-22T06:00:11;94063.56;;;8.72;100.00
3178;BME280;38141;42.666;23.344;2023-11-22T06:02:39;94075.88;;;8.45;100.00
3178;BME280;38141;42.666;23.344;2023-11-22T06:05:07;94061.63;;;8.52;100.00
3178;BME280;38141;42.666;23.344;2023-11-22T06:07:36;94059.72;;;8.70;100.00
3178;BME280;38141;42.666;23.344;2023-11-22T06:10:03;94078.19;;;8.82;100.00
3178;BME280;38141;42.666;23.344;2023-11-22T06:12:30;94082.06;;;8.99;100.00
3178;BME280;38141;42.666;23.344;2023-11-22T06:14:57;94092.06;;;8.91;100.00
3178;BME280;38141;42.666;23.344;2023-11-22T06:17:24;94092.09;;;8.95;100.00
3178;BME280;38141;42.666;23.344;2023-11-22T06:19:51;94094.00;;;9.01;100.00
3178;BME280;38141;42.666;23.344;2023-11-22T06:22:18;94096.69;;;9.12;100.00
3178;BME280;38141;42.666;23.344;2023-11-22T06:24:46;94106.31;;;9.09;100.00
3178;BME280;38141;42.666;23.344;2023-11-22T06:27:13;94077.81;;;8.87;100.00
3178;BME280;38141;42.666;23.344;2023-11-22T06:29:40;94117.91;;;8.99;100.00
3178;BME280;38141;42.666;23.344;2023-11-22T06:32:09;94120.59;;;9.03;100.00
3178;BME280;38141;42.666;23.344;2023-11-22T06:34:36;94124.06;;;9.03;100.00
3178;BME280;38141;42.666;23.344;2023-11-22T06:37:04;94083.19;;;8.90;100.00
3178;BME280;38141;42.666;23.344;2023-11-22T06:39:33;94041.22;;;8.65;100.00
3178;BME280;38141;42.666;23.344;2023-11-22T06:42:02;94104.00;;;9.18;100.00
3178;BME280;38141;42.666;23.344;2023-11-22T06:44:29;94111.72;;;9.23;100.00
3178;BME280;38141;42.666;23.344;2023-11-22T06:46:55;94125.22;;;9.30;100.00
3178;BME280;38141;42.666;23.344;2023-11-22T06:49:22;94124.03;;;9.31;100.00
3178;BME280;38141;42.666;23.344;2023-11-22T06:51:49;94110.94;;;9.19;100.00
3178;BME280;38141;42.666;23.344;2023-11-22T06:54:18;94147.94;;;9.36;100.00
3178;BME280;38141;42.666;23.344;2023-11-22T06:56:45;94135.19;;;9.41;100.00
3178;BME280;38141;42.666;23.344;2023-11-22T06:59:14;94149.09;;;9.35;100.00
3178;BME280;38141;42.666;23.344;2023-11-22T07:01:41;94134.81;;;9.38;100.00
3178;BME280;38141;42.666;23.344;2023-11-22T07:04:08;94139.81;;;9.51;100.00
3178;BME280;38141;42.666;23.344;2023-11-22T07:06:35;94136.34;;;9.47;100.00
3178;BME280;38141;42.666;23.344;2023-11-22T07:09:03;94129.41;;;9.53;100.00
3178;BME280;38141;42.666;23.344;2023-11-22T07:11:30;94145.59;;;9.67;100.00
3178;BME280;38141;42.666;23.344;2023-11-22T07:13:57;94141.69;;;9.68;100.00
3178;BME280;38141;42.666;23.344;2023-11-22T07:16:25;94154.44;;;9.64;100.00
3178;BME280;38141;42.666;23.344;2023-11-22T07:18:52;94149.44;;;9.66;100.00
3178;BME280;38141;42.666;23.344;2023-11-22T07:21:19;94156.81;;;9.48;100.00
3178;BME280;38141;42.666;23.344;2023-11-22T07:23:46;94159.09;;;9.60;100.00
3178;BME280;38141;42.666;23.344;2023-11-22T07:26:13;94164.09;;;9.75;100.00
3178;BME280;38141;42.666;23.344;2023-11-22T07:28:40;94156.38;;;9.63;100.00
3178;BME280;38141;42.666;23.344;2023-11-22T07:31:07;94155.59;;;9.80;100.00
3178;BME280;38141;42.666;23.344;2023-11-22T07:33:36;94149.81;;;9.71;100.00
3178;BME280;38141;42.666;23.344;2023-11-22T07:36:04;94164.00;;;9.97;100.00
3178;BME280;38141;42.666;23.344;2023-11-22T07:38:33;94164.41;;;9.99;100.00
3178;BME280;38141;42.666;23.344;2023-11-22T07:40:59;94135.19;;;9.58;100.00
3178;BME280;38141;42.666;23.344;2023-11-22T07:43:26;94152.53;;;9.57;100.00
3178;BME280;38141;42.666;23.344;2023-11-22T07:45:53;94159.88;;;9.50;100.00
3178;BME280;38141;42.666;23.344;2023-11-22T07:48:20;94169.09;;;9.80;100.00
3178;BME280;38141;42.666;23.344;2023-11-22T07:50:49;94171.38;;;9.93;100.00
3178;BME280;38141;42.666;23.344;2023-11-22T07:53:17;94084.34;;;9.25;100.00
3178;BME280;38141;42.666;23.344;2023-11-22T07:55:44;94174.03;;;10.03;100.00
3178;BME280;38141;42.666;23.344;2023-11-22T07:58:11;94177.91;;;9.99;100.00
3178;BME280;38141;42.666;23.344;2023-11-22T08:00:40;94084.31;;;9.39;100.00
3178;BME280;38141;42.666;23.344;2023-11-22T08:03:08;94189.03;;;10.15;100.00
3178;BME280;38141;42.666;23.344;2023-11-22T08:05:35;94157.44;;;10.01;100.00
3178;BME280;38141;42.666;23.344;2023-11-22T08:08:07;94186.69;;;10.35;100.00
3178;BME280;38141;42.666;23.344;2023-11-22T08:10:34;94176.69;;;10.24;100.00
3178;BME280;38141;42.666;23.344;2023-11-22T08:13:02;94186.00;;;10.02;100.00
3178;BME280;38141;42.666;23.344;2023-11-22T08:15:29;94154.75;;;9.98;100.00
3178;BME280;38141;42.666;23.344;2023-11-22T08:17:57;94163.25;;;9.96;100.00
3178;BME280;38141;42.666;23.344;2023-11-22T08:20:25;94195.97;;;10.30;100.00
3178;BME280;38141;42.666;23.344;2023-11-22T08:22:52;94188.91;;;10.54;100.00
3178;BME280;38141;42.666;23.344;2023-11-22T08:25:21;94189.69;;;10.54;100.00
3178;BME280;38141;42.666;23.344;2023-11-22T08:27:47;94195.94;;;10.44;100.00
3178;BME280;38141;42.666;23.344;2023-11-22T08:30:15;94202.03;;;10.55;100.00
3178;BME280;38141;42.666;23.344;2023-11-22T08:32:43;94194.69;;;10.59;100.00
3178;BME280;38141;42.666;23.344;2023-11-22T08:35:13;94195.41;;;10.70;100.00
3178;BME280;38141;42.666;23.344;2023-11-22T08:37:41;94197.31;;;10.74;100.00
3178;BME280;38141;42.666;23.344;2023-11-22T08:40:09;94181.47;;;10.72;100.00
3178;BME280;38141;42.666;23.344;2023-11-22T08:42:38;94205.78;;;10.79;100.00
3178;BME280;38141;42.666;23.344;2023-11-22T08:45:07;94192.00;;;10.56;100.00
3178;BME280;38141;42.666;23.344;2023-11-22T08:47:37;94201.59;;;10.71;100.00
3178;BME280;38141;42.666;23.344;2023-11-22T08:50:06;94207.34;;;10.77;100.00
3178;BME280;38141;42.666;23.344;2023-11-22T08:52:33;94200.84;;;10.63;100.00
3178;BME280;38141;42.666;23.344;2023-11-22T08:55:03;94199.44;;;10.34;100.00
3178;BME280;38141;42.666;23.344;2023-11-22T08:57:35;94211.69;;;10.60;100.00
3178;BME280;38141;42.666;23.344;2023-11-22T09:00:05;94202.69;;;10.77;100.00
3178;BME280;38141;42.666;23.344;2023-11-22T09:02:35;94195.28;;;10.92;100.00
3178;BME280;38141;42.666;23.344;2023-11-22T09:05:02;94209.78;;;11.19;100.00
3178;BME280;38141;42.666;23.344;2023-11-22T09:07:32;94216.31;;;11.25;100.00
3178;BME280;38141;42.666;23.344;2023-11-22T09:10:00;94203.28;;;11.09;100.00
3178;BME280;38141;42.666;23.344;2023-11-22T09:12:34;94218.09;;;11.46;100.00
3178;BME280;38141;42.666;23.344;2023-11-22T09:15:03;94219.06;;;11.70;100.00
3178;BME280;38141;42.666;23.344;2023-11-22T09:17:34;94209.47;;;11.62;100.00
3178;BME280;38141;42.666;23.344;2023-11-22T09:20:01;94219.31;;;11.86;100.00
3178;BME280;38141;42.666;23.344;2023-11-22T09:22:28;94230.31;;;12.09;100.00
3178;BME280;38141;42.666;23.344;2023-11-22T09:24:55;94230.28;;;12.16;100.00
3178;BME280;38141;42.666;23.344;2023-11-22T09:27:22;94229.81;;;11.84;100.00
3178;BME280;38141;42.666;23.344;2023-11-22T09:29:49;94228.09;;;11.56;100.00
3178;BME280;38141;42.666;23.344;2023-11-22T09:32:17;94234.13;;;11.78;100.00
3178;BME280;38141;42.666;23.344;2023-11-22T09:34:44;94222.00;;;11.41;100.00
3178;BME280;38141;42.666;23.344;2023-11-22T09:37:11;94240.56;;;11.91;100.00
3178;BME280;38141;42.666;23.344;2023-11-22T09:39:37;94241.47;;;11.77;100.00
3178;BME280;38141;42.666;23.344;2023-11-22T09:42:05;94235.19;;;11.87;100.00
3178;BME280;38141;42.666;23.344;2023-11-22T09:44:32;94246.34;;;11.96;100.00
3178;BME280;38141;42.666;23.344;2023-11-22T09:46:59;94225.25;;;11.70;100.00
3178;BME280;38141;42.666;23.344;2023-11-22T09:49:30;94201.31;;;11.13;100.00
3178;BME280;38141;42.666;23.344;2023-11-22T09:52:01;94203.28;;;11.61;100.00
3178;BME280;38141;42.666;23.344;2023-11-22T09:54:30;94233.28;;;11.84;100.00
3178;BME280;38141;42.666;23.344;2023-11-22T09:56:59;94238.09;;;11.59;100.00
3178;BME280;38141;42.666;23.344;2023-11-22T09:59:29;94218.75;;;11.60;100.00
3178;BME280;38141;42.666;23.344;2023-11-22T10:01:58;94236.97;;;12.04;100.00
3178;BME280;38141;42.666;23.344;2023-11-22T10:04:27;94235.66;;;12.20;100.00
3178;BME280;38141;42.666;23.344;2023-11-22T10:06:57;94232.06;;;11.92;100.00
3178;BME280;38141;42.666;23.344;2023-11-22T10:09:25;94234.53;;;12.14;100.00
3178;BME280;38141;42.666;23.344;2023-11-22T10:11:57;94220.69;;;12.04;100.00
3178;BME280;38141;42.666;23.344;2023-11-22T10:14:25;94198.34;;;11.93;100.00
3178;BME280;38141;42.666;23.344;2023-11-22T10:16:58;94226.78;;;12.16;100.00
3178;BME280;38141;42.666;23.344;2023-11-22T10:19:27;94225.38;;;12.38;100.00
3178;BME280;38141;42.666;23.344;2023-11-22T10:22:05;94213.75;;;12.03;100.00
3178;BME280;38141;42.666;23.344;2023-11-22T10:24:32;94218.06;;;11.97;100.00
3178;BME280;38141;42.666;23.344;2023-11-22T10:27:00;94236.09;;;12.15;100.00
3178;BME280;38141;42.666;23.344;2023-11-22T10:29:27;94226.19;;;12.35;100.00
3178;BME280;38141;42.666;23.344;2023-11-22T10:31:54;94221.66;;;12.25;100.00
3178;BME280;38141;42.666;23.344;2023-11-22T10:34:23;94220.19;;;12.17;100.00
3178;BME280;38141;42.666;23.344;2023-11-22T10:36:52;94225.13;;;12.25;100.00
3178;BME280;38141;42.666;23.344;2023-11-22T10:39:19;94227.38;;;12.34;100.00
3178;BME280;38141;42.666;23.344;2023-11-22T10:41:47;94232.50;;;12.25;100.00
3178;BME280;38141;42.666;23.344;2023-11-22T10:44:19;94237.97;;;12.21;100.00
3178;BME280;38141;42.666;23.344;2023-11-22T10:46:47;94241.38;;;12.29;100.00
3178;BME280;38141;42.666;23.344;2023-11-22T10:49:16;94234.59;;;12.10;100.00
3178;BME280;38141;42.666;23.344;2023-11-22T10:51:44;94237.38;;;11.99;100.00
3178;BME280;38141;42.666;23.344;2023-11-22T10:54:18;94220.69;;;12.04;100.00
3178;BME280;38141;42.666;23.344;2023-11-22T10:56:53;94232.56;;;12.21;100.00
3178;BME280;38141;42.666;23.344;2023-11-22T10:59:22;94230.59;;;12.22;100.00
3178;BME280;38141;42.666;23.344;2023-11-22T11:01:54;94226.06;;;12.12;100.00
3178;BME280;38141;42.666;23.344;2023-11-22T11:04:26;94233.63;;;11.90;100.00
3178;BME280;38141;42.666;23.344;2023-11-22T11:06:55;94234.06;;;11.81;100.00
3178;BME280;38141;42.666;23.344;2023-11-22T11:09:24;94228.59;;;11.88;100.00
3178;BME280;38141;42.666;23.344;2023-11-22T11:11:57;94239.34;;;11.99;100.00
3178;BME280;38141;42.666;23.344;2023-11-22T11:14:25;94239.19;;;12.13;100.00
3178;BME280;38141;42.666;23.344;2023-11-22T11:16:53;94241.16;;;12.13;100.00
3178;BME280;38141;42.666;23.344;2023-11-22T11:19:24;94239.88;;;12.24;100.00
3178;BME280;38141;42.666;23.344;2023-11-22T11:21:51;94232.88;;;11.89;100.00
3178;BME280;38141;42.666;23.344;2023-11-22T11:24:18;94219.19;;;12.03;100.00
3178;BME280;38141;42.666;23.344;2023-11-22T11:26:49;94219.03;;;12.14;100.00
3178;BME280;38141;42.666;23.344;2023-11-22T11:29:31;94227.94;;;12.15;100.00
3178;BME280;38141;42.666;23.344;2023-11-22T11:31:58;94227.91;;;12.22;100.00
3178;BME280;38141;42.666;23.344;2023-11-22T11:34:24;94215.09;;;12.22;100.00
3178;BME280;38141;42.666;23.344;2023-11-22T11:36:52;94233.91;;;12.40;100.00
3178;BME280;38141;42.666;23.344;2023-11-22T11:39:25;94231.34;;;12.26;100.00
3178;BME280;38141;42.666;23.344;2023-11-22T11:42:09;94230.84;;;12.34;100.00
3178;BME280;38141;42.666;23.344;2023-11-22T11:44:36;94242.75;;;12.44;100.00
3178;BME280;38141;42.666;23.344;2023-11-22T11:47:11;94203.06;;;12.23;100.00
3178;BME280;38141;42.666;23.344;2023-11-22T11:49:38;94174.22;;;12.06;100.00
3178;BME280;38141;42.666;23.344;2023-11-22T11:52:05;94227.97;;;12.48;100.00
3178;BME280;38141;42.666;23.344;2023-11-22T11:54:33;94234.69;;;12.37;100.00
3178;BME280;38141;42.666;23.344;2023-11-22T11:57:03;94242.88;;;12.67;100.00
3178;BME280;38141;42.666;23.344;2023-11-22T11:59:31;94242.72;;;12.78;100.00
3178;BME280;38141;42.666;23.344;2023-11-22T12:01:59;94228.88;;;12.69;100.00
3178;BME280;38141;42.666;23.344;2023-11-22T12:04:26;94254.41;;;12.75;100.00
3178;BME280;38141;42.666;23.344;2023-11-22T12:06:53;94251.75;;;12.71;100.00
3178;BME280;38141;42.666;23.344;2023-11-22T12:09:23;94241.31;;;12.32;100.00
3178;BME280;38141;42.666;23.344;2023-11-22T12:11:52;94235.41;;;12.41;100.00
3178;BME280;38141;42.666;23.344;2023-11-22T12:14:19;94247.03;;;12.41;100.00
3178;BME280;38141;42.666;23.344;2023-11-22T12:16:50;94259.22;;;12.60;100.00
3178;BME280;38141;42.666;23.344;2023-11-22T12:19:24;94252.97;;;12.67;100.00
3178;BME280;38141;42.666;23.344;2023-11-22T12:21:52;94255.41;;;12.88;100.00
3178;BME280;38141;42.666;23.344;2023-11-22T12:24:19;94261.44;;;12.99;100.00
3178;BME280;38141;42.666;23.344;2023-11-22T12:26:46;94257.31;;;12.91;100.00
3178;BME280;38141;42.666;23.344;2023-11-22T12:29:14;94267.03;;;12.88;100.00
3178;BME280;38141;42.666;23.344;2023-11-22T12:31:49;94263.31;;;12.75;100.00
3178;BME280;38141;42.666;23.344;2023-11-22T12:34:18;94259.31;;;12.53;100.00
3178;BME280;38141;42.666;23.344;2023-11-22T12:36:46;94243.41;;;12.21;100.00
3178;BME280;38141;42.666;23.344;2023-11-22T12:39:14;94253.31;;;12.35;100.00
3178;BME280;38141;42.666;23.344;2023-11-22T12:41:44;94260.66;;;12.72;100.00
3178;BME280;38141;42.666;23.344;2023-11-22T12:44:11;94254.94;;;12.29;100.00
3178;BME280;38141;42.666;23.344;2023-11-22T12:46:45;94271.59;;;12.65;100.00
3178;BME280;38141;42.666;23.344;2023-11-22T12:49:16;94256.41;;;12.71;100.00
3178;BME280;38141;42.666;23.344;2023-11-22T12:51:48;94225.44;;;12.34;100.00
3178;BME280;38141;42.666;23.344;2023-11-22T12:54:15;94244.59;;;12.51;100.00
3178;BME280;38141;42.666;23.344;2023-11-22T12:56:45;94304.31;;;12.84;100.00
3178;BME280;38141;42.666;23.344;2023-11-22T12:59:14;94299.53;;;12.62;100.00
3178;BME280;38141;42.666;23.344;2023-11-22T13:01:44;94227.53;;;12.20;100.00
3178;BME280;38141;42.666;23.344;2023-11-22T13:04:11;94167.88;;;11.82;100.00